Time;durP1;ratioP1;P1;durP2;ratioP2;P2;SDS_P1;SDS_P2;PMS_P1;PMS_P2;Temp;Humidity;BMP_temperature;BMP_pressure;BME280_temperature;BME280_humidity;BME280_pressure;Samples;Min_cycle;Max_cycle;Signal;HPM_P1;HPM_P2
2023/03/19 00:01:57;;;;;;;0.00;0.00;;;12.10;99.90;;;;;;4998324;28;20457;-64
2023/03/19 00:04:24;;;;;;;0.00;0.00;;;12.00;99.90;;;;;;4992695;28;20046;-64
2023/03/19 00:06:50;;;;;;;0.10;0.10;;;12.00;99.90;;;;;;4992634;28;20441;-64
2023/03/19 00:09:16;;;;;;;4.85;1.05;;;12.10;99.90;;;;;;4992644;28;20042;-64
2023/03/19 00:11:42;;;;;;;0.00;0.00;;;12.00;99.90;;;;;;4992749;28;20056;-64
2023/03/19 00:14:07;;;;;;;0.08;0.08;;;12.00;99.90;;;;;;5004499;28;20046;-64
2023/03/19 00:16:34;;;;;;;0.05;0.05;;;12.00;99.90;;;;;;5009127;28;20438;-64
2023/03/19 00:19:00;;;;;;;0.10;0.10;;;12.00;99.90;;;;;;4992012;28;20397;-64
2023/03/19 00:21:25;;;;;;;0.20;0.20;;;12.00;99.90;;;;;;5000565;28;20113;-64
2023/03/19 00:23:51;;;;;;;0.00;0.00;;;11.90;99.90;;;;;;4992844;28;20405;-64
2023/03/19 00:26:17;;;;;;;0.03;0.03;;;12.00;99.90;;;;;;4991261;28;20548;-64
2023/03/19 00:28:42;;;;;;;0.00;0.00;;;11.90;99.90;;;;;;4992956;28;20114;-64
2023/03/19 00:31:14;;;;;;;0.10;0.10;;;11.90;99.90;;;;;;4994141;28;20074;-64
2023/03/19 00:33:40;;;;;;;0.35;0.35;;;11.90;99.90;;;;;;5011088;28;20065;-64
2023/03/19 00:36:06;;;;;;;0.00;0.00;;;11.80;99.90;;;;;;4996073;28;20379;-64
2023/03/19 00:38:34;;;;;;;1.25;1.17;;;11.80;99.90;;;;;;4994035;28;20046;-64
2023/03/19 00:41:00;;;;;;;0.10;0.10;;;11.80;99.90;;;;;;4999096;28;20058;-64
2023/03/19 00:43:26;;;;;;;0.20;0.20;;;11.80;99.90;;;;;;5000118;28;20045;-64
2023/03/19 00:45:52;;;;;;;1.08;1.08;;;11.80;99.90;;;;;;5005525;28;20064;-64
2023/03/19 00:48:18;;;;;;;0.00;0.00;;;11.80;99.90;;;;;;4993229;28;20050;-64
2023/03/19 00:50:44;;;;;;;0.10;0.10;;;11.70;99.90;;;;;;4991769;28;20482;-64
2023/03/19 00:53:09;;;;;;;0.10;0.10;;;11.70;99.90;;;;;;4991673;28;20481;-64
2023/03/19 00:55:35;;;;;;;0.08;0.08;;;11.70;99.90;;;;;;4992017;28;20056;-64
2023/03/19 00:58:01;;;;;;;0.10;0.10;;;11.70;99.90;;;;;;5003110;28;20038;-64
2023/03/19 01:00:27;;;;;;;0.35;0.35;;;11.70;99.90;;;;;;5008577;28;20137;-64
2023/03/19 01:02:54;;;;;;;0.10;0.10;;;11.70;99.90;;;;;;4991544;28;20140;-64
2023/03/19 01:05:19;;;;;;;0.10;0.10;;;11.60;99.90;;;;;;4992144;28;20129;-64
2023/03/19 01:07:45;;;;;;;0.00;0.00;;;11.60;99.90;;;;;;4991984;28;20417;-64
2023/03/19 01:10:10;;;;;;;0.00;0.00;;;11.70;99.90;;;;;;4998201;28;20050;-64
2023/03/19 01:12:36;;;;;;;0.10;0.10;;;11.60;99.90;;;;;;5003901;28;20053;-64
2023/03/19 01:15:03;;;;;;;0.35;0.22;;;11.60;99.90;;;;;;4997169;28;20038;-64
2023/03/19 01:17:29;;;;;;;0.63;0.63;;;11.60;99.90;;;;;;4994368;28;20504;-64
2023/03/19 01:19:55;;;;;;;0.03;0.03;;;11.60;99.90;;;;;;4991989;28;20042;-64
2023/03/19 01:22:20;;;;;;;0.05;0.05;;;11.60;99.90;;;;;;4990906;28;20042;-64
2023/03/19 01:24:46;;;;;;;0.10;0.10;;;11.60;99.90;;;;;;4991332;28;20122;-64
2023/03/19 01:27:12;;;;;;;0.10;0.10;;;11.70;99.90;;;;;;5004394;28;20046;-63
2023/03/19 01:29:37;;;;;;;0.10;0.10;;;11.60;99.90;;;;;;4993713;28;20049;-64
2023/03/19 01:32:03;;;;;;;0.10;0.10;;;11.70;99.90;;;;;;4994003;28;20409;-64
2023/03/19 01:34:28;;;;;;;0.00;0.00;;;11.60;99.90;;;;;;4996098;28;20046;-64
2023/03/19 01:36:54;;;;;;;0.10;0.10;;;11.60;99.90;;;;;;5010080;28;20050;-64
2023/03/19 01:39:20;;;;;;;0.10;0.10;;;11.70;99.90;;;;;;5009836;28;20124;-64
2023/03/19 01:41:45;;;;;;;0.20;0.20;;;11.70;99.90;;;;;;5009249;28;20045;-64
2023/03/19 01:44:26;;;;;;;0.52;0.52;;;11.70;99.90;;;;;;4993321;28;20109;-64
2023/03/19 01:46:52;;;;;;;0.63;0.63;;;11.70;99.90;;;;;;4995369;28;20420;-64
2023/03/19 01:49:20;;;;;;;0.10;0.10;;;11.60;99.90;;;;;;4990482;28;20047;-64
2023/03/19 01:51:46;;;;;;;0.20;0.20;;;11.60;99.90;;;;;;4991396;28;20077;-64
2023/03/19 01:54:19;;;;;;;0.10;0.10;;;11.60;99.90;;;;;;4991852;28;20046;-64
2023/03/19 01:56:49;;;;;;;0.10;0.10;;;11.60;99.90;;;;;;5000721;28;20093;-64
2023/03/19 01:59:21;;;;;;;0.77;0.73;;;11.60;99.90;;;;;;5008757;28;20871;-64
2023/03/19 02:01:59;;;;;;;0.10;0.10;;;11.60;99.90;;;;;;4993892;28;20109;-64
2023/03/19 02:04:26;;;;;;;0.30;0.30;;;11.50;99.90;;;;;;4990407;28;20093;-64
2023/03/19 02:06:55;;;;;;;0.00;0.00;;;11.50;99.90;;;;;;4990367;28;20557;-64
2023/03/19 02:09:22;;;;;;;0.10;0.10;;;11.50;99.90;;;;;;4990828;28;20529;-64
2023/03/19 02:11:49;;;;;;;0.10;0.10;;;11.50;99.90;;;;;;4988350;28;20054;-64
2023/03/19 02:14:15;;;;;;;0.30;0.30;;;11.50;99.90;;;;;;5001016;28;20077;-64
2023/03/19 02:16:41;;;;;;;0.20;0.20;;;11.40;99.90;;;;;;4992111;28;20046;-64
2023/03/19 02:19:14;;;;;;;0.38;0.38;;;11.40;99.90;;;;;;5009823;28;20050;-64
2023/03/19 02:21:40;;;;;;;;;;;11.40;99.90;;;;;;5005279;28;20100;-64
2023/03/19 02:24:16;;;;;;;1.23;1.13;;;11.30;99.90;;;;;;4997607;28;19922;-64
2023/03/19 02:26:44;;;;;;;0.32;0.32;;;11.40;99.90;;;;;;5009415;28;20041;-64
2023/03/19 02:29:09;;;;;;;1.00;0.95;;;11.30;99.90;;;;;;5002302;28;20076;-64
2023/03/19 02:31:35;;;;;;;0.43;0.43;;;11.30;99.90;;;;;;4990174;28;20880;-64
2023/03/19 02:34:12;;;;;;;0.00;0.00;;;11.30;99.90;;;;;;4996230;28;20052;-64
2023/03/19 02:36:43;;;;;;;0.05;0.05;;;11.30;99.90;;;;;;5008218;28;20038;-64
2023/03/19 02:39:17;;;;;;;0.45;0.45;;;11.40;99.90;;;;;;5008133;28;20042;-64
2023/03/19 02:41:44;;;;;;;0.20;0.20;;;11.40;99.90;;;;;;4991166;28;20096;-64
2023/03/19 02:44:11;;;;;;;0.45;0.45;;;11.30;99.90;;;;;;4995271;28;20062;-64
2023/03/19 02:46:36;;;;;;;0.20;0.20;;;11.30;99.90;;;;;;4990621;28;20490;-64
2023/03/19 02:49:02;;;;;;;0.68;0.68;;;11.30;99.90;;;;;;5010339;28;20104;-64
2023/03/19 02:51:28;;;;;;;0.10;0.10;;;11.30;99.90;;;;;;4993842;28;20038;-64
2023/03/19 02:53:54;;;;;;;0.57;0.57;;;11.30;99.90;;;;;;4989631;28;20092;-64
2023/03/19 02:56:20;;;;;;;0.32;0.32;;;11.30;99.90;;;;;;4990853;28;20782;-64
2023/03/19 02:58:45;;;;;;;0.17;0.17;;;11.30;99.90;;;;;;4992648;28;20058;-64
2023/03/19 03:01:11;;;;;;;0.20;0.20;;;11.30;99.90;;;;;;4998165;28;20064;-64
2023/03/19 03:03:37;;;;;;;0.55;0.55;;;11.30;99.90;;;;;;5004934;28;20085;-64
2023/03/19 03:06:02;;;;;;;0.10;0.10;;;11.30;99.90;;;;;;4992344;28;20398;-64
2023/03/19 03:08:28;;;;;;;0.30;0.30;;;11.30;99.90;;;;;;4991565;28;20058;-64
2023/03/19 03:10:53;;;;;;;0.52;0.52;;;11.30;99.90;;;;;;4990438;28;20030;-65
2023/03/19 03:13:19;;;;;;;0.55;0.45;;;11.30;99.90;;;;;;5003055;28;20041;-65
2023/03/19 03:15:45;;;;;;;0.35;0.35;;;11.30;99.90;;;;;;4993760;28;20046;-65
2023/03/19 03:18:10;;;;;;;0.75;0.68;;;11.30;99.90;;;;;;5002781;28;20097;-65
2023/03/19 03:20:36;;;;;;;1.55;0.90;;;11.30;99.90;;;;;;5000433;28;20042;-65
2023/03/19 03:23:02;;;;;;;0.98;0.98;;;11.30;99.90;;;;;;4993523;28;20046;-65
2023/03/19 03:25:27;;;;;;;0.30;0.30;;;11.30;99.90;;;;;;4996704;28;20397;-65
2023/03/19 03:27:53;;;;;;;0.73;0.63;;;11.30;99.90;;;;;;5005316;28;20500;-65
2023/03/19 03:30:19;;;;;;;0.50;0.50;;;11.20;99.90;;;;;;5012245;28;20041;-65
2023/03/19 03:32:44;;;;;;;0.20;0.20;;;11.20;99.90;;;;;;5013449;28;20050;-65
2023/03/19 03:35:11;;;;;;;0.25;0.25;;;11.20;99.90;;;;;;5000570;28;20050;-65
2023/03/19 03:37:36;;;;;;;0.25;0.25;;;11.20;99.90;;;;;;4994497;28;20477;-65
2023/03/19 03:40:07;;;;;;;2.20;0.60;;;11.10;99.90;;;;;;4993339;28;20050;-64
2023/03/19 03:42:32;;;;;;;1.02;0.63;;;11.20;99.90;;;;;;5004670;28;20048;-65
2023/03/19 03:44:58;;;;;;;0.43;0.43;;;11.10;99.90;;;;;;5012676;28;20057;-65
2023/03/19 03:47:24;;;;;;;0.20;0.20;;;11.20;99.90;;;;;;5010722;28;20046;-64
2023/03/19 03:49:49;;;;;;;0.22;0.22;;;11.10;99.90;;;;;;4996435;28;20096;-65
2023/03/19 03:52:15;;;;;;;0.35;0.35;;;11.10;99.90;;;;;;5013527;28;20076;-64
2023/03/19 03:54:41;;;;;;;0.20;0.20;;;11.00;99.90;;;;;;5010479;28;20054;-64
2023/03/19 03:57:06;;;;;;;0.35;0.35;;;11.00;99.90;;;;;;5009507;28;20092;-64
2023/03/19 03:59:32;;;;;;;0.38;0.38;;;11.00;99.90;;;;;;4995422;28;20050;-64
2023/03/19 04:01:58;;;;;;;0.10;0.10;;;10.90;99.90;;;;;;4996535;28;20116;-64
2023/03/19 04:04:23;;;;;;;0.10;0.10;;;10.90;99.90;;;;;;5010366;28;20491;-65
2023/03/19 04:06:49;;;;;;;0.50;0.50;;;10.90;99.90;;;;;;4995743;28;20050;-65
2023/03/19 04:09:16;;;;;;;0.10;0.10;;;10.90;99.90;;;;;;4993566;28;20042;-67
2023/03/19 04:11:41;;;;;;;0.95;0.95;;;10.80;99.90;;;;;;4992575;28;20096;-64
2023/03/19 04:14:07;;;;;;;0.08;0.08;;;10.70;99.90;;;;;;4992515;28;20516;-65
2023/03/19 04:16:33;;;;;;;0.52;0.52;;;10.80;99.90;;;;;;4992764;28;20038;-64
2023/03/19 04:18:59;;;;;;;0.10;0.10;;;10.80;99.90;;;;;;4992940;28;20054;-64
2023/03/19 04:21:25;;;;;;;0.10;0.10;;;10.80;99.90;;;;;;5009363;28;20053;-64
2023/03/19 04:23:50;;;;;;;0.10;0.10;;;10.70;99.90;;;;;;5003605;28;20054;-64
2023/03/19 04:26:16;;;;;;;0.40;0.40;;;10.70;99.90;;;;;;4998916;28;20040;-64
2023/03/19 04:28:42;;;;;;;3.72;0.57;;;10.60;99.90;;;;;;5012254;28;20054;-64
2023/03/19 04:31:09;;;;;;;0.65;0.60;;;10.60;99.90;;;;;;5001423;28;20050;-64
2023/03/19 04:33:35;;;;;;;0.10;0.10;;;10.60;99.90;;;;;;5009178;28;20054;-63
2023/03/19 04:36:02;;;;;;;0.10;0.10;;;10.50;99.90;;;;;;5010467;28;20117;-63
2023/03/19 04:38:28;;;;;;;0.30;0.30;;;10.50;99.90;;;;;;5008734;28;20108;-63
2023/03/19 04:40:55;;;;;;;0.28;0.28;;;10.40;99.90;;;;;;4996017;28;20046;-64
2023/03/19 04:43:22;;;;;;;0.50;0.40;;;10.40;99.90;;;;;;4992035;28;20053;-64
2023/03/19 04:45:48;;;;;;;2.30;1.48;;;10.40;99.90;;;;;;4994511;28;21106;-63
2023/03/19 04:48:13;;;;;;;0.55;0.55;;;10.30;99.90;;;;;;5011340;28;20462;-64
2023/03/19 04:50:40;;;;;;;0.25;0.25;;;10.30;99.90;;;;;;5001348;28;20078;-64
2023/03/19 04:53:06;;;;;;;0.10;0.10;;;10.30;99.90;;;;;;4991225;28;20489;-64
2023/03/19 04:55:32;;;;;;;0.08;0.08;;;10.30;99.90;;;;;;4997142;28;20065;-64
2023/03/19 04:57:59;;;;;;;0.40;0.40;;;10.30;99.90;;;;;;5008172;28;20049;-64
2023/03/19 05:00:25;;;;;;;0.10;0.10;;;10.20;99.90;;;;;;5011009;28;20049;-64
2023/03/19 05:02:50;;;;;;;0.30;0.30;;;10.20;99.90;;;;;;4994797;28;20401;-63
2023/03/19 05:05:16;;;;;;;0.95;0.55;;;10.30;99.90;;;;;;5007054;28;20045;-62
2023/03/19 05:07:42;;;;;;;0.10;0.10;;;10.20;99.90;;;;;;5011052;28;20124;-62
2023/03/19 05:10:09;;;;;;;1.98;0.38;;;10.10;99.90;;;;;;5008847;28;20132;-62
2023/03/19 05:12:35;;;;;;;0.35;0.35;;;10.10;99.90;;;;;;5005108;28;20509;-62
2023/03/19 05:15:01;;;;;;;0.20;0.20;;;10.10;99.90;;;;;;4999813;28;20041;-62
2023/03/19 05:17:27;;;;;;;0.70;0.57;;;10.10;99.90;;;;;;5009555;28;20046;-62
2023/03/19 05:19:53;;;;;;;0.03;0.03;;;10.00;99.90;;;;;;5007190;28;20046;-62
2023/03/19 05:22:19;;;;;;;0.75;0.75;;;9.90;99.90;;;;;;4991385;28;20057;-62
2023/03/19 05:24:45;;;;;;;0.43;0.43;;;9.90;99.90;;;;;;4994026;28;20096;-62
2023/03/19 05:27:12;;;;;;;0.10;0.10;;;9.90;99.90;;;;;;4989097;28;20050;-62
2023/03/19 05:29:37;;;;;;;0.20;0.20;;;9.90;99.90;;;;;;4991234;28;20046;-62
2023/03/19 05:32:04;;;;;;;1.75;1.30;;;9.90;99.90;;;;;;5001360;28;20080;-62
2023/03/19 05:34:30;;;;;;;0.38;0.38;;;9.90;99.90;;;;;;4995806;28;20076;-62
2023/03/19 05:36:56;;;;;;;0.40;0.40;;;9.90;99.90;;;;;;5010234;28;20038;-62
2023/03/19 05:39:22;;;;;;;0.15;0.15;;;9.90;99.90;;;;;;5010089;28;20441;-62
2023/03/19 05:41:48;;;;;;;0.55;0.55;;;9.90;99.90;;;;;;4991519;28;20137;-62
2023/03/19 05:44:13;;;;;;;0.63;0.63;;;9.90;99.90;;;;;;5003449;28;20577;-62
2023/03/19 05:46:39;;;;;;;0.17;0.17;;;9.90;99.90;;;;;;4991080;28;20527;-62
2023/03/19 05:49:04;;;;;;;2.72;0.63;;;9.80;99.90;;;;;;4990246;28;20096;-62
2023/03/19 05:51:30;;;;;;;0.13;0.13;;;9.80;99.90;;;;;;5007213;28;20069;-62
2023/03/19 05:53:56;;;;;;;0.57;0.57;;;9.80;99.90;;;;;;4996556;28;20046;-62
2023/03/19 05:56:22;;;;;;;0.10;0.10;;;9.80;99.90;;;;;;4994757;28;20493;-62
2023/03/19 05:58:47;;;;;;;0.55;0.55;;;9.70;99.90;;;;;;4993857;28;20034;-62
2023/03/19 06:01:13;;;;;;;0.30;0.30;;;9.70;99.90;;;;;;4997579;28;20045;-62
2023/03/19 06:03:39;;;;;;;0.68;0.68;;;9.70;99.90;;;;;;5008359;28;20053;-63
2023/03/19 06:06:06;;;;;;;0.68;0.68;;;9.70;99.90;;;;;;4994858;28;20437;-61
2023/03/19 06:08:32;;;;;;;0.30;0.30;;;9.60;99.90;;;;;;4990642;28;20505;-62
2023/03/19 06:10:58;;;;;;;0.40;0.40;;;9.70;99.90;;;;;;4999219;28;20814;-62
2023/03/19 06:13:24;;;;;;;0.28;0.28;;;9.60;99.90;;;;;;4992152;28;20042;-62
2023/03/19 06:15:50;;;;;;;0.95;0.77;;;9.60;99.90;;;;;;4993924;28;20049;-62
2023/03/19 06:18:17;;;;;;;1.35;0.82;;;9.60;99.90;;;;;;5000763;28;20084;-62
2023/03/19 06:20:42;;;;;;;0.30;0.30;;;9.60;99.90;;;;;;4994624;28;20086;-62
2023/03/19 06:23:08;;;;;;;0.20;0.20;;;9.70;99.90;;;;;;4990301;28;20479;-62
2023/03/19 06:25:33;;;;;;;0.77;0.77;;;9.60;99.90;;;;;;4999512;28;20042;-62
2023/03/19 06:27:59;;;;;;;0.50;0.50;;;9.70;99.90;;;;;;4990708;28;20042;-62
2023/03/19 06:30:25;;;;;;;5.47;1.20;;;9.60;99.90;;;;;;4990705;28;20405;-62
2023/03/19 06:32:51;;;;;;;0.10;0.10;;;9.60;99.90;;;;;;4990208;28;20145;-62
2023/03/19 06:35:17;;;;;;;1.77;0.98;;;9.60;99.90;;;;;;4998137;28;20132;-62
2023/03/19 06:37:42;;;;;;;0.50;0.50;;;9.70;99.90;;;;;;5002298;28;20405;-62
2023/03/19 06:40:09;;;;;;;2.22;2.10;;;9.70;99.90;;;;;;4996655;28;20053;-62
2023/03/19 06:42:35;;;;;;;0.65;0.65;;;9.70;99.90;;;;;;4998868;28;20065;-62
2023/03/19 06:45:01;;;;;;;0.25;0.25;;;9.70;99.90;;;;;;5009501;28;20152;-62
2023/03/19 06:47:27;;;;;;;13.32;2.50;;;9.70;99.90;;;;;;4991830;28;20089;-62
2023/03/19 06:49:52;;;;;;;2.38;1.00;;;9.70;99.90;;;;;;4998804;28;20085;-62
2023/03/19 06:52:18;;;;;;;0.10;0.10;;;9.70;99.90;;;;;;5008494;28;20046;-62
2023/03/19 06:54:44;;;;;;;0.73;0.73;;;9.70;99.90;;;;;;5012807;28;20753;-62
2023/03/19 06:57:09;;;;;;;0.95;0.93;;;9.70;99.90;;;;;;5013761;28;20424;-63
2023/03/19 06:59:35;;;;;;;0.43;0.43;;;9.70;99.90;;;;;;4996013;28;20050;-62
2023/03/19 07:02:02;;;;;;;0.57;0.57;;;9.80;99.90;;;;;;5009396;28;20058;-62
2023/03/19 07:04:28;;;;;;;0.20;0.20;;;9.80;99.90;;;;;;5013934;28;20050;-62
2023/03/19 07:06:53;;;;;;;1.40;1.05;;;9.80;99.90;;;;;;5003635;28;20478;-62
2023/03/19 07:09:19;;;;;;;1.55;1.45;;;9.70;99.90;;;;;;4995601;28;20053;-62
2023/03/19 07:11:45;;;;;;;0.40;0.40;;;9.70;99.90;;;;;;4995049;28;20486;-63
2023/03/19 07:14:10;;;;;;;1.17;0.70;;;9.70;99.90;;;;;;5011308;28;20077;-63
2023/03/19 07:16:36;;;;;;;2.22;2.13;;;9.70;99.90;;;;;;5001157;28;20050;-63
2023/03/19 07:19:02;;;;;;;0.85;0.85;;;9.80;99.90;;;;;;4994051;28;20057;-62
2023/03/19 07:21:28;;;;;;;3.63;1.58;;;9.80;99.90;;;;;;4998938;28;20073;-63
2023/03/19 07:23:54;;;;;;;2.45;2.30;;;9.80;99.90;;;;;;5003818;28;20097;-63
2023/03/19 07:26:19;;;;;;;3.50;1.02;;;9.80;99.90;;;;;;4993309;28;20080;-62
2023/03/19 07:28:45;;;;;;;0.77;0.77;;;9.80;99.90;;;;;;4994196;28;20054;-62
2023/03/19 07:31:11;;;;;;;1.67;1.55;;;9.70;99.90;;;;;;5003381;28;20042;-62
2023/03/19 07:33:36;;;;;;;1.63;1.52;;;9.70;99.90;;;;;;4996160;28;20108;-63
2023/03/19 07:36:02;;;;;;;1.05;1.05;;;9.60;99.90;;;;;;5005879;28;20072;-63
2023/03/19 07:38:27;;;;;;;0.85;0.85;;;9.60;99.90;;;;;;4995393;28;20129;-62
2023/03/19 07:40:53;;;;;;;0.73;0.32;;;9.60;99.90;;;;;;4997750;28;20117;-63
2023/03/19 07:43:19;;;;;;;0.65;0.65;;;9.50;99.90;;;;;;5002210;28;20050;-63
2023/03/19 07:45:44;;;;;;;1.38;1.27;;;9.50;99.90;;;;;;5011111;28;20062;-63
2023/03/19 07:48:10;;;;;;;0.80;0.80;;;9.40;99.90;;;;;;5011609;28;20054;-63
2023/03/19 07:50:36;;;;;;;3.72;2.05;;;9.50;99.90;;;;;;4996796;28;20050;-63
2023/03/19 07:53:02;;;;;;;1.73;1.63;;;9.40;99.90;;;;;;5001924;28;20092;-63
2023/03/19 07:55:28;;;;;;;1.02;1.02;;;9.40;99.90;;;;;;5000129;28;20076;-63
2023/03/19 07:57:53;;;;;;;1.02;0.90;;;9.40;99.90;;;;;;5002835;28;20378;-63
2023/03/19 08:00:19;;;;;;;0.98;0.90;;;9.40;99.90;;;;;;4994451;28;20085;-62
2023/03/19 08:02:45;;;;;;;1.35;1.33;;;9.40;99.90;;;;;;5008960;28;20535;-62
2023/03/19 08:05:11;;;;;;;4.10;0.95;;;9.40;99.90;;;;;;5000880;28;20077;-63
2023/03/19 08:07:37;;;;;;;0.35;0.35;;;9.40;99.90;;;;;;4998373;28;20046;-62
2023/03/19 08:10:04;;;;;;;1.30;1.05;;;9.40;99.90;;;;;;4992196;28;20046;-63
2023/03/19 08:12:30;;;;;;;1.13;1.13;;;9.40;99.90;;;;;;4994104;28;20173;-63
2023/03/19 08:14:56;;;;;;;0.98;0.98;;;9.30;99.90;;;;;;4993104;28;20085;-62
2023/03/19 08:17:22;;;;;;;0.30;0.30;;;9.40;99.90;;;;;;4992055;28;20043;-62
2023/03/19 08:19:47;;;;;;;0.80;0.60;;;9.40;99.90;;;;;;4994850;28;20046;-62
2023/03/19 08:22:13;;;;;;;1.00;1.00;;;9.30;99.90;;;;;;5008083;28;20051;-63
2023/03/19 08:24:38;;;;;;;0.60;0.60;;;9.30;99.90;;;;;;5010980;28;20046;-62
2023/03/19 08:27:04;;;;;;;0.35;0.35;;;9.30;99.90;;;;;;4992550;28;20049;-62
2023/03/19 08:29:30;;;;;;;0.98;0.98;;;9.30;99.90;;;;;;4992108;28;20422;-63
2023/03/19 08:31:57;;;;;;;0.30;0.30;;;9.30;99.90;;;;;;4998654;28;20042;-62
2023/03/19 08:34:23;;;;;;;0.30;0.30;;;9.30;99.90;;;;;;4992301;28;20533;-63
2023/03/19 08:36:48;;;;;;;0.57;0.57;;;9.30;99.90;;;;;;5000777;28;20157;-63
2023/03/19 08:39:15;;;;;;;0.40;0.40;;;9.40;99.90;;;;;;5012081;28;20432;-64
2023/03/19 08:41:41;;;;;;;4.88;0.82;;;9.30;99.90;;;;;;5003824;28;20044;-64
2023/03/19 08:44:07;;;;;;;0.30;0.30;;;9.30;99.90;;;;;;4994840;28;20058;-63
2023/03/19 08:46:32;;;;;;;0.32;0.32;;;9.30;99.90;;;;;;5009037;28;20433;-64
2023/03/19 08:48:59;;;;;;;3.67;1.25;;;9.40;99.90;;;;;;5005199;28;20173;-62
2023/03/19 08:51:26;;;;;;;0.85;0.85;;;9.30;99.90;;;;;;5001939;28;20052;-63
2023/03/19 08:53:52;;;;;;;2.78;1.65;;;9.40;99.90;;;;;;5007968;28;20061;-63
2023/03/19 08:56:18;;;;;;;1.45;0.55;;;9.40;99.90;;;;;;5004644;28;21034;-62
2023/03/19 08:58:44;;;;;;;0.35;0.35;;;9.40;99.90;;;;;;5005203;28;20046;-63
2023/03/19 09:01:12;;;;;;;1.38;1.27;;;9.40;99.90;;;;;;5008358;28;20050;-63
2023/03/19 09:03:40;;;;;;;0.75;0.47;;;9.50;99.90;;;;;;5010023;28;20077;-63
2023/03/19 09:06:07;;;;;;;0.30;0.30;;;9.50;99.90;;;;;;5009496;28;20045;-63
2023/03/19 09:08:34;;;;;;;0.17;0.17;;;9.50;99.90;;;;;;5005533;28;20053;-63
2023/03/19 09:11:00;;;;;;;2.60;1.23;;;9.60;99.90;;;;;;4998652;28;20543;-63
2023/03/19 09:13:26;;;;;;;1.02;0.95;;;9.50;99.90;;;;;;5006154;28;20129;-63
2023/03/19 09:15:52;;;;;;;0.75;0.75;;;9.50;99.90;;;;;;5006848;28;20057;-63
2023/03/19 09:18:19;;;;;;;0.32;0.32;;;9.60;99.90;;;;;;5008242;28;20080;-63
2023/03/19 09:20:45;;;;;;;0.85;0.82;;;9.60;99.90;;;;;;5000512;28;20481;-64
2023/03/19 09:23:11;;;;;;;0.17;0.17;;;9.60;99.90;;;;;;4999187;28;20053;-64
2023/03/19 09:25:37;;;;;;;1.55;1.45;;;9.60;99.90;;;;;;4998637;28;20397;-64
2023/03/19 09:28:02;;;;;;;1.33;0.93;;;9.70;99.90;;;;;;5007744;28;20060;-63
2023/03/19 09:30:28;;;;;;;0.43;0.43;;;9.70;99.90;;;;;;5008249;28;20053;-63
2023/03/19 09:32:54;;;;;;;0.32;0.32;;;9.70;99.90;;;;;;4999037;28;20053;-64
2023/03/19 09:35:19;;;;;;;2.30;0.95;;;9.80;99.90;;;;;;5008714;28;20041;-63
2023/03/19 09:37:46;;;;;;;0.93;0.88;;;9.70;99.90;;;;;;5003927;28;20062;-63
2023/03/19 09:40:33;;;;;;;1.75;0.88;;;9.70;99.90;;;;;;5004913;28;20061;-63
2023/03/19 09:43:33;;;;;;;0.10;0.10;;;9.70;99.90;;;;;;5010100;28;20050;-64
2023/03/19 09:46:02;;;;;;;1.20;0.63;;;9.80;99.90;;;;;;4990553;28;20058;-63
2023/03/19 09:48:56;;;;;;;3.83;1.45;;;9.80;99.90;;;;;;5003751;28;20046;-63
2023/03/19 09:51:42;;;;;;;1.58;1.48;;;9.70;99.90;;;;;;4997896;28;20520;-63
2023/03/19 09:54:25;;;;;;;1.00;1.00;;;9.70;99.90;;;;;;5000825;28;20068;-64
2023/03/19 09:56:51;;;;;;;0.20;0.20;;;9.70;99.90;;;;;;5001924;28;20100;-63
2023/03/19 09:59:17;;;;;;;0.43;0.43;;;9.80;99.90;;;;;;5006436;28;20041;-63
2023/03/19 10:02:23;;;;;;;0.90;0.90;;;9.80;99.90;;;;;;5002986;28;20042;-64
2023/03/19 10:04:57;;;;;;;0.30;0.30;;;9.90;99.90;;;;;;4999642;28;20080;-63
2023/03/19 10:07:58;;;;;;;2.38;1.50;;;9.80;99.90;;;;;;5005776;28;20061;-64
2023/03/19 10:10:52;;;;;;;2.97;1.60;;;9.90;99.90;;;;;;4972878;28;20088;-63
2023/03/19 10:13:38;;;;;;;;;;;9.90;99.90;;;;;;5001145;28;20099;-63
2023/03/19 10:16:08;;;;;;;0.20;0.17;;;9.90;99.90;;;;;;5006446;28;19948;-63
2023/03/19 10:18:35;;;;;;;3.67;1.25;;;9.90;99.90;;;;;;5008721;28;20041;-63
2023/03/19 10:21:07;;;;;;;1.50;1.40;;;9.90;99.90;;;;;;5004213;28;20046;-63
2023/03/19 10:24:00;;;;;;;0.85;0.85;;;9.80;99.90;;;;;;4998192;28;20103;-63
2023/03/19 10:26:30;;;;;;;0.32;0.32;;;9.90;99.90;;;;;;5002750;28;20054;-63
2023/03/19 10:29:09;;;;;;;1.27;1.20;;;9.90;99.90;;;;;;4995361;28;20038;-63
2023/03/19 10:31:41;;;;;;;1.00;0.90;;;9.90;99.90;;;;;;5012680;28;20463;-63
2023/03/19 10:34:25;;;;;;;2.08;1.98;;;9.90;99.90;;;;;;5011041;28;20042;-63
2023/03/19 10:36:59;;;;;;;0.20;0.20;;;9.90;99.90;;;;;;5001214;28;20104;-63
2023/03/19 10:39:24;;;;;;;0.57;0.57;;;9.90;99.90;;;;;;5007943;28;20048;-63
2023/03/19 10:42:21;;;;;;;0.90;0.90;;;9.90;99.90;;;;;;5006689;28;20046;-63
2023/03/19 10:45:03;;;;;;;1.65;0.85;;;10.00;99.90;;;;;;5007161;28;20058;-63
2023/03/19 10:47:37;;;;;;;2.88;2.30;;;9.90;99.90;;;;;;4997087;28;20485;-62
2023/03/19 10:50:02;;;;;;;;;;;9.90;99.90;;;;;;5004297;28;20049;-62
2023/03/19 10:52:35;;;;;;;1.02;1.02;;;9.90;99.90;;;;;;5007866;28;20401;-62
2023/03/19 10:55:28;;;;;;;0.30;0.30;;;9.90;99.90;;;;;;5005302;28;20386;-62
2023/03/19 10:58:02;;;;;;;0.65;0.55;;;9.90;99.90;;;;;;4998309;28;20062;-63
2023/03/19 11:00:34;;;;;;;0.10;0.10;;;9.90;99.90;;;;;;4999899;28;20127;-63
2023/03/19 11:03:03;;;;;;;0.22;0.22;;;9.90;99.90;;;;;;5008603;28;20370;-64
2023/03/19 11:05:31;;;;;;;1.70;1.15;;;9.90;99.90;;;;;;5010969;28;20072;-63
2023/03/19 11:08:18;;;;;;;0.65;0.65;;;9.90;99.90;;;;;;5015446;28;20046;-64
2023/03/19 11:10:47;;;;;;;0.57;0.57;;;9.90;99.90;;;;;;4995721;28;20593;-63
2023/03/19 11:13:23;;;;;;;0.43;0.43;;;9.90;99.90;;;;;;5010620;28;20081;-64
2023/03/19 11:15:51;;;;;;;0.25;0.25;;;10.00;99.90;;;;;;5002569;28;20070;-63
2023/03/19 11:18:27;;;;;;;0.20;0.20;;;10.00;99.90;;;;;;5012223;28;20179;-64
2023/03/19 11:21:01;;;;;;;0.52;0.52;;;9.90;99.90;;;;;;5010327;28;20092;-64
2023/03/19 11:23:29;;;;;;;0.88;0.82;;;10.00;99.90;;;;;;5004388;28;20045;-63
2023/03/19 11:26:00;;;;;;;1.00;1.00;;;10.10;99.90;;;;;;5005897;28;20409;-63
2023/03/19 11:28:31;;;;;;;1.05;1.05;;;10.10;99.90;;;;;;5003770;28;20125;-64
2023/03/19 11:31:15;;;;;;;1.10;0.68;;;10.20;99.90;;;;;;5012192;28;20042;-64
2023/03/19 11:34:13;;;;;;;2.88;1.13;;;10.20;99.90;;;;;;5001819;28;20058;-64
2023/03/19 11:36:53;;;;;;;0.82;0.82;;;10.30;99.90;;;;;;5011957;28;20050;-64
2023/03/19 11:39:29;;;;;;;1.55;1.45;;;10.30;99.90;;;;;;5009168;28;20049;-64
2023/03/19 11:42:06;;;;;;;0.20;0.20;;;10.30;99.90;;;;;;4998283;28;20046;-64
2023/03/19 11:44:42;;;;;;;0.10;0.10;;;10.30;99.90;;;;;;5011747;28;20050;-64
2023/03/19 11:47:23;;;;;;;0.10;0.10;;;10.30;99.90;;;;;;4995283;28;20042;-64
2023/03/19 11:50:21;;;;;;;0.32;0.32;;;10.30;99.90;;;;;;5007382;28;20053;-64
2023/03/19 11:52:59;;;;;;;1.17;1.17;;;10.40;99.90;;;;;;5007365;28;20485;-64
2023/03/19 11:55:48;;;;;;;1.33;0.65;;;10.30;99.90;;;;;;5007901;28;20049;-64
2023/03/19 11:58:30;;;;;;;1.80;1.25;;;10.30;99.90;;;;;;5012722;28;20092;-64
2023/03/19 12:01:00;;;;;;;1.05;1.05;;;10.30;99.90;;;;;;5000501;28;20145;-64
2023/03/19 12:03:55;;;;;;;1.15;1.02;;;10.40;99.90;;;;;;5005431;28;20049;-64
2023/03/19 12:06:55;;;;;;;0.10;0.10;;;10.40;99.90;;;;;;4996248;28;20073;-64
2023/03/19 12:09:24;;;;;;;1.08;1.08;;;10.40;99.90;;;;;;4990398;28;20058;-64
2023/03/19 12:12:03;;;;;;;0.30;0.30;;;10.50;99.90;;;;;;5002727;28;20512;-65
2023/03/19 12:15:03;;;;;;;0.88;0.88;;;10.50;99.90;;;;;;5004267;28;20045;-64
2023/03/19 12:17:58;;;;;;;0.45;0.45;;;10.50;99.90;;;;;;5011799;28;20382;-65
2023/03/19 12:20:43;;;;;;;1.00;0.93;;;10.50;99.90;;;;;;4999406;28;20054;-64
2023/03/19 12:23:35;;;;;;;3.20;1.73;;;10.50;99.90;;;;;;4999338;28;20045;-64
2023/03/19 12:26:07;;;;;;;6.63;1.90;;;10.50;99.90;;;;;;5007596;28;20056;-64
2023/03/19 12:29:06;;;;;;;2.17;1.55;;;10.50;99.90;;;;;;4996335;28;20053;-64
2023/03/19 12:31:44;;;;;;;1.63;1.52;;;10.50;99.90;;;;;;4988020;28;20064;-64
2023/03/19 12:34:28;;;;;;;0.77;0.77;;;10.40;99.90;;;;;;5010028;28;20375;-65
2023/03/19 12:37:16;;;;;;;0.95;0.95;;;10.50;99.90;;;;;;5011099;28;20042;-64
2023/03/19 12:40:03;;;;;;;1.35;1.27;;;10.50;99.90;;;;;;4991964;28;20488;-64
2023/03/19 12:42:33;;;;;;;0.55;0.55;;;10.50;99.90;;;;;;5001028;28;20049;-64
2023/03/19 12:45:03;;;;;;;5.57;1.85;;;10.50;99.90;;;;;;5005743;28;20073;-64
2023/03/19 12:47:35;;;;;;;0.30;0.30;;;10.50;99.90;;;;;;4998395;28;20052;-64
2023/03/19 12:50:08;;;;;;;4.07;1.65;;;10.50;99.90;;;;;;5007497;28;20555;-65
2023/03/19 12:52:42;;;;;;;0.15;0.15;;;10.60;99.90;;;;;;5003190;28;20049;-64
2023/03/19 12:55:39;;;;;;;1.50;1.40;;;10.70;99.90;;;;;;5007487;28;20038;-65
2023/03/19 12:58:23;;;;;;;1.00;1.00;;;10.80;99.90;;;;;;5001823;28;20046;-64
2023/03/19 13:00:52;;;;;;;0.77;0.77;;;10.80;99.90;;;;;;5006554;28;20042;-64
2023/03/19 13:03:21;;;;;;;0.10;0.10;;;10.90;99.90;;;;;;5011227;28;20532;-64
2023/03/19 13:06:09;;;;;;;1.58;1.48;;;10.90;99.90;;;;;;5000278;28;20042;-65